Time;durP1;ratioP1;P1;durP2;ratioP2;P2;SDS_P1;SDS_P2;PMS_P1;PMS_P2;Temp;Humidity;BMP_temperature;BMP_pressure;BME280_temperature;BME280_humidity;BME280_pressure;Samples;Min_cycle;Max_cycle;Signal;HPM_P1;HPM_P2
2022/06/13 00:00:29;;;;;;;9.30;3.20;;;14.10;99.90;;;;;;5115421;28;20048;-72
2022/06/13 00:02:55;;;;;;;7.65;3.58;;;14.10;99.90;;;;;;5098464;28;20048;-72
2022/06/13 00:05:21;;;;;;;11.80;4.95;;;14.10;99.90;;;;;;5117092;28;20492;-73
2022/06/13 00:07:46;;;;;;;;;;;14.10;99.90;;;;;;5117804;28;20055;-72
2022/06/13 00:10:13;;;;;;;11.27;3.95;;;14.10;99.90;;;;;;5117250;28;19990;-71
2022/06/13 00:12:41;;;;;;;7.88;3.35;;;14.10;99.90;;;;;;5115285;28;20117;-72
2022/06/13 00:15:10;;;;;;;10.50;3.97;;;14.10;99.90;;;;;;5117031;28;20064;-71
2022/06/13 00:17:36;;;;;;;12.68;3.80;;;14.10;99.90;;;;;;5116924;28;20058;-70
2022/06/13 00:20:05;;;;;;;7.13;3.25;;;14.10;99.90;;;;;;5116789;28;20052;-71
2022/06/13 00:22:30;;;;;;;11.57;3.63;;;14.10;99.90;;;;;;5097266;28;20404;-73
2022/06/13 00:24:57;;;;;;;10.25;3.03;;;14.10;99.90;;;;;;5116761;28;20044;-71
2022/06/13 00:27:23;;;;;;;8.32;3.40;;;14.10;99.90;;;;;;5116669;28;20437;-72
2022/06/13 00:29:49;;;;;;;6.00;2.88;;;14.10;99.90;;;;;;5098635;28;20059;-73
2022/06/13 00:32:16;;;;;;;8.20;3.20;;;14.00;99.90;;;;;;5095220;28;20067;-71
2022/06/13 00:34:43;;;;;;;12.02;3.63;;;14.10;99.90;;;;;;5061256;28;20517;-71
2022/06/13 00:37:09;;;;;;;8.32;3.35;;;14.00;99.90;;;;;;5075953;28;20055;-73
2022/06/13 00:39:35;;;;;;;7.82;3.42;;;14.00;99.90;;;;;;5076034;28;20056;-71
2022/06/13 00:42:01;;;;;;;9.02;3.55;;;14.00;99.90;;;;;;5066039;28;20400;-71
2022/06/13 00:44:30;;;;;;;10.70;3.10;;;14.10;99.90;;;;;;5096135;28;20386;-71
2022/06/13 00:46:56;;;;;;;8.63;3.75;;;14.00;99.90;;;;;;5094551;28;20059;-71
2022/06/13 00:49:46;;;;;;;7.30;2.75;;;14.00;99.90;;;;;;5095770;28;20056;-71
2022/06/13 00:52:34;;;;;;;11.70;3.50;;;14.00;99.90;;;;;;5073584;28;20401;-72
2022/06/13 00:55:00;;;;;;;8.45;3.08;;;14.00;99.90;;;;;;5095864;28;20087;-73
2022/06/13 00:57:28;;;;;;;9.55;3.10;;;13.90;99.90;;;;;;5095787;28;20204;-71
2022/06/13 00:59:59;;;;;;;8.95;3.25;;;14.00;99.90;;;;;;5077586;28;20056;-72
2022/06/13 01:02:25;;;;;;;8.35;3.78;;;13.90;99.90;;;;;;5080954;28;20110;-73
2022/06/13 01:04:52;;;;;;;7.68;2.75;;;14.00;99.90;;;;;;5075580;28;20060;-71
2022/06/13 01:07:20;;;;;;;9.90;3.42;;;13.90;99.90;;;;;;5075493;28;20059;-71
2022/06/13 01:12:32;;;;;;;12.23;2.90;;;14.00;99.90;;;;;;5083263;28;20081;-70
2022/06/13 01:15:16;;;;;;;8.32;3.45;;;13.90;99.90;;;;;;5077846;28;20056;-71
2022/06/13 01:18:01;;;;;;;7.72;3.25;;;13.90;99.90;;;;;;5095571;28;20422;-71
2022/06/13 01:20:34;;;;;;;13.73;3.20;;;13.90;99.90;;;;;;5095366;28;20052;-72
2022/06/13 01:23:16;;;;;;;7.95;3.47;;;13.90;99.90;;;;;;5075662;28;20059;-71
2022/06/13 01:25:59;;;;;;;12.73;4.13;;;13.80;99.90;;;;;;5095333;28;20493;-71
2022/06/13 01:28:40;;;;;;;7.53;4.00;;;13.80;99.90;;;;;;5095263;28;20459;-71
2022/06/13 01:31:22;;;;;;;6.50;2.78;;;13.80;99.90;;;;;;5095021;28;20088;-71
2022/06/13 01:33:47;;;;;;;9.23;3.58;;;13.80;99.90;;;;;;5094366;28;20052;-71
2022/06/13 01:36:28;;;;;;;11.05;3.88;;;13.70;99.90;;;;;;5115513;28;20213;-73
2022/06/13 01:39:24;;;;;;;6.57;3.17;;;13.70;99.90;;;;;;5115549;28;20407;-73
2022/06/13 01:42:05;;;;;;;9.55;3.47;;;13.70;99.90;;;;;;5095636;28;20116;-71
2022/06/13 01:44:31;;;;;;;9.25;3.28;;;13.70;99.90;;;;;;5115443;28;20104;-70
2022/06/13 01:47:06;;;;;;;10.32;3.45;;;13.70;99.90;;;;;;5115345;28;20055;-71
2022/06/13 01:49:36;;;;;;;14.32;4.47;;;13.60;99.90;;;;;;5115347;28;20143;-71
2022/06/13 01:52:16;;;;;;;14.55;4.57;;;13.60;99.90;;;;;;5103383;28;20052;-71
2022/06/13 01:55:03;;;;;;;6.35;3.05;;;13.60;99.90;;;;;;5094625;28;20052;-72
2022/06/13 01:57:41;;;;;;;10.85;3.40;;;13.60;99.90;;;;;;5076466;28;20518;-71
2022/06/13 02:00:17;;;;;;;8.32;3.92;;;13.60;99.90;;;;;;5076612;28;20047;-71
2022/06/13 02:02:51;;;;;;;10.52;4.32;;;13.50;99.90;;;;;;5094380;28;20143;-71
2022/06/13 02:05:23;;;;;;;9.48;3.80;;;13.50;99.90;;;;;;5094611;28;20052;-71
2022/06/13 02:07:56;;;;;;;10.88;3.72;;;13.50;99.90;;;;;;5104213;28;20055;-71
2022/06/13 02:10:27;;;;;;;8.48;4.15;;;13.50;99.90;;;;;;5114437;28;20063;-73
2022/06/13 02:13:00;;;;;;;9.15;3.58;;;13.50;99.90;;;;;;5114654;28;20051;-71
2022/06/13 02:15:32;;;;;;;11.35;4.13;;;13.50;99.90;;;;;;5096659;28;20047;-71
2022/06/13 02:18:02;;;;;;;10.75;3.17;;;13.50;99.90;;;;;;5114746;28;20452;-71
2022/06/13 02:20:36;;;;;;;11.30;3.75;;;13.40;99.90;;;;;;5104762;28;20483;-71
2022/06/13 02:23:06;;;;;;;6.47;3.35;;;13.40;99.90;;;;;;5114546;28;20503;-71
2022/06/13 02:25:53;;;;;;;11.90;3.80;;;13.40;99.90;;;;;;5114627;28;20116;-71
2022/06/13 02:28:32;;;;;;;9.02;3.35;;;13.40;99.90;;;;;;5096378;28;20104;-72
2022/06/13 02:31:04;;;;;;;10.00;3.95;;;13.40;99.90;;;;;;5112455;28;20052;-72
2022/06/13 02:33:47;;;;;;;12.48;4.65;;;13.40;99.90;;;;;;5095960;28;20392;-72
2022/06/13 02:36:15;;;;;;;8.68;4.15;;;13.40;99.90;;;;;;5078972;28;20492;-71
2022/06/13 02:38:53;;;;;;;13.68;3.60;;;13.40;99.90;;;;;;5112363;28;20109;-73
2022/06/13 02:41:23;;;;;;;10.95;3.42;;;13.70;99.90;;;;;;5114411;28;20055;-70
2022/06/13 02:43:48;;;;;;;11.02;4.72;;;13.50;99.90;;;;;;5114249;28;20044;-73
2022/06/13 02:46:20;;;;;;;8.57;3.72;;;13.50;99.90;;;;;;5114155;28;20055;-71
2022/06/13 02:48:54;;;;;;;8.25;3.97;;;13.80;99.90;;;;;;5113967;28;20091;-71
2022/06/13 02:51:25;;;;;;;11.27;4.70;;;13.50;99.90;;;;;;5096183;28;20496;-71
2022/06/13 02:54:28;;;;;;;10.45;3.80;;;13.50;99.90;;;;;;5075991;28;20139;-73
2022/06/13 02:57:24;;;;;;;12.43;4.28;;;13.50;99.90;;;;;;5074892;28;20059;-70
2022/06/13 03:00:04;;;;;;;10.88;4.25;;;13.50;99.90;;;;;;5092993;28;20377;-71
2022/06/13 03:02:57;;;;;;;15.38;4.40;;;13.40;99.90;;;;;;5090758;28;20051;-71
2022/06/13 03:05:49;;;;;;;8.88;4.03;;;13.40;99.90;;;;;;5093362;28;20495;-73
2022/06/13 03:08:55;;;;;;;8.82;4.30;;;13.40;99.90;;;;;;5092882;28;20408;-72
2022/06/13 03:11:40;;;;;;;11.15;4.22;;;13.40;99.90;;;;;;5093488;28;20114;-71
2022/06/13 03:14:41;;;;;;;7.88;3.45;;;13.40;99.90;;;;;;5093349;28;20056;-72
2022/06/13 03:17:22;;;;;;;12.35;3.78;;;13.40;99.90;;;;;;5030805;28;20209;-73
2022/06/13 03:19:55;;;;;;;8.07;3.88;;;13.40;99.90;;;;;;5032830;28;20057;-71
2022/06/13 03:22:32;;;;;;;8.65;4.25;;;13.40;99.90;;;;;;5050794;28;20045;-70
2022/06/13 03:25:07;;;;;;;10.88;3.60;;;13.40;99.90;;;;;;5050800;28;20068;-71
2022/06/13 03:27:49;;;;;;;8.65;2.97;;;13.40;99.90;;;;;;5050817;28;20064;-73
2022/06/13 03:30:20;;;;;;;7.22;4.10;;;13.40;99.90;;;;;;5044843;28;20092;-74
2022/06/13 03:35:42;;;;;;;11.10;4.30;;;13.50;99.90;;;;;;5033961;28;20430;-72
2022/06/13 03:38:16;;;;;;;12.48;4.57;;;13.50;99.90;;;;;;5050692;28;20049;-71
2022/06/13 03:40:47;;;;;;;10.27;4.60;;;13.40;99.90;;;;;;5050754;28;20146;-73
2022/06/13 03:43:24;;;;;;;8.27;3.75;;;13.50;99.90;;;;;;5050336;28;20456;-71
2022/06/13 03:46:09;;;;;;;10.02;4.15;;;13.40;99.90;;;;;;5034214;28;20064;-71
2022/06/13 03:48:57;;;;;;;17.60;5.10;;;13.40;99.90;;;;;;5034251;28;20065;-71
2022/06/13 03:51:51;;;;;;;9.65;4.13;;;13.40;99.90;;;;;;5050561;28;20061;-72
2022/06/13 03:54:34;;;;;;;13.57;4.43;;;13.30;99.90;;;;;;5071915;28;20057;-71
2022/06/13 03:57:10;;;;;;;8.85;3.65;;;13.30;99.90;;;;;;5072715;28;20471;-71
2022/06/13 03:59:35;;;;;;;15.95;4.82;;;13.30;99.90;;;;;;5071442;28;20048;-70
2022/06/13 04:02:07;;;;;;;10.90;4.63;;;13.30;99.90;;;;;;5075586;28;20515;-70
2022/06/13 04:04:39;;;;;;;9.23;4.60;;;13.30;99.90;;;;;;5077570;28;20052;-71
2022/06/13 04:07:05;;;;;;;12.23;4.70;;;13.30;99.90;;;;;;5071511;28;20140;-71
2022/06/13 04:09:38;;;;;;;11.88;4.57;;;13.30;99.90;;;;;;5071914;28;20136;-72
2022/06/13 04:12:39;;;;;;;9.40;4.85;;;13.70;99.90;;;;;;5063437;28;20056;-73
2022/06/13 04:15:48;;;;;;;9.98;4.47;;;13.30;99.90;;;;;;5072494;28;20103;-73
2022/06/13 04:18:36;;;;;;;9.82;4.38;;;13.30;99.90;;;;;;5072701;28;20095;-71
2022/06/13 04:21:15;;;;;;;10.60;4.50;;;13.30;99.90;;;;;;5073197;28;20102;-71
2022/06/13 04:24:05;;;;;;;13.43;4.72;;;13.20;99.90;;;;;;5076042;28;20052;-72
2022/06/13 04:26:49;;;;;;;12.48;4.93;;;13.30;99.90;;;;;;5076259;28;20416;-73
2022/06/13 04:29:29;;;;;;;12.05;4.82;;;13.30;99.90;;;;;;5074792;28;20463;-72
2022/06/13 04:32:02;;;;;;;14.95;4.57;;;13.30;99.90;;;;;;5075179;28;20518;-71
2022/06/13 04:34:33;;;;;;;8.65;4.28;;;13.30;99.90;;;;;;5105038;28;20404;-70
2022/06/13 04:37:00;;;;;;;11.27;4.70;;;13.30;99.90;;;;;;5116613;28;20055;-72
2022/06/13 04:39:30;;;;;;;12.48;4.40;;;13.30;99.90;;;;;;5116605;28;20136;-71
2022/06/13 04:41:59;;;;;;;10.32;4.47;;;13.40;99.90;;;;;;5114725;28;20504;-71
2022/06/13 04:44:27;;;;;;;13.85;4.95;;;13.40;99.90;;;;;;5097856;28;20068;-73
2022/06/13 04:46:55;;;;;;;11.07;4.82;;;13.50;99.90;;;;;;5116320;28;20052;-74
2022/06/13 04:49:42;;;;;;;12.10;4.70;;;13.40;99.90;;;;;;5116537;28;20476;-73
2022/06/13 04:52:13;;;;;;;11.02;4.72;;;13.50;99.90;;;;;;5116243;28;20055;-71
2022/06/13 04:55:23;;;;;;;11.55;4.22;;;13.50;99.90;;;;;;5114165;28;20048;-70
2022/06/13 04:57:49;;;;;;;11.68;3.75;;;13.50;99.90;;;;;;5033347;28;20053;-71
2022/06/13 05:00:15;;;;;;;8.05;4.07;;;13.60;99.90;;;;;;5016905;28;20081;-71
2022/06/13 05:02:42;;;;;;;;;;;13.60;99.90;;;;;;5017588;28;20057;-71
2022/06/13 05:05:26;;;;;;;11.10;4.18;;;13.70;99.90;;;;;;5031544;28;20389;-71
2022/06/13 05:07:51;;;;;;;11.88;5.60;;;13.70;99.90;;;;;;5033226;28;20213;-71
2022/06/13 05:10:22;;;;;;;12.35;5.32;;;13.70;99.90;;;;;;5033254;28;20061;-71
2022/06/13 05:12:48;;;;;;;14.50;4.15;;;13.70;99.90;;;;;;5033081;28;20402;-72
2022/06/13 05:15:28;;;;;;;11.35;4.15;;;13.80;99.90;;;;;;5015055;28;20561;-71
2022/06/13 05:18:20;;;;;;;12.35;4.95;;;13.80;99.90;;;;;;5016865;28;20057;-73
2022/06/13 05:21:07;;;;;;;9.57;4.50;;;13.90;99.90;;;;;;5033158;28;20157;-70
2022/06/13 05:23:42;;;;;;;9.30;3.38;;;13.90;99.90;;;;;;5033336;28;20057;-71
2022/06/13 05:26:08;;;;;;;9.90;3.47;;;14.00;99.90;;;;;;5023621;28;20501;-71
2022/06/13 05:28:36;;;;;;;11.48;3.05;;;14.00;99.90;;;;;;5016583;28;20104;-71
2022/06/13 05:31:18;;;;;;;10.57;3.42;;;14.10;99.90;;;;;;5016123;28;20049;-73
2022/06/13 05:33:44;;;;;;;7.30;2.97;;;14.20;99.90;;;;;;5084861;28;20097;-71
2022/06/13 05:36:15;;;;;;;11.50;4.40;;;14.10;99.90;;;;;;5107200;28;20052;-71
2022/06/13 05:38:46;;;;;;;7.85;2.97;;;14.20;99.90;;;;;;5076758;28;20091;-74
2022/06/13 05:41:12;;;;;;;8.07;2.15;;;14.40;99.90;;;;;;5094868;28;20412;-71
2022/06/13 05:43:38;;;;;;;5.55;1.63;;;14.30;99.90;;;;;;5095465;28;20052;-71
2022/06/13 05:46:05;;;;;;;6.07;2.03;;;14.90;99.90;;;;;;5078223;28;20052;-71
2022/06/13 05:48:31;;;;;;;5.10;3.15;;;14.70;99.90;;;;;;5094997;28;20047;-71
2022/06/13 05:50:59;;;;;;;10.65;2.40;;;14.40;99.90;;;;;;5077081;28;20067;-72
2022/06/13 05:53:27;;;;;;;8.35;2.45;;;14.40;99.90;;;;;;5094725;28;20044;-71
2022/06/13 05:55:57;;;;;;;11.27;2.25;;;14.40;99.90;;;;;;5094251;28;20131;-74
2022/06/13 05:58:24;;;;;;;3.28;1.83;;;14.50;99.90;;;;;;5094848;28;20060;-71
2022/06/13 06:00:59;;;;;;;8.30;2.35;;;14.50;99.90;;;;;;5094533;28;20087;-70
2022/06/13 06:03:25;;;;;;;6.32;2.30;;;14.50;99.90;;;;;;5094704;28;20081;-71
2022/06/13 06:05:52;;;;;;;;;;;14.60;99.90;;;;;;5094641;28;20048;-71
2022/06/13 06:08:23;;;;;;;7.07;1.50;;;14.00;99.90;;;;;;5094540;28;20019;-71
2022/06/13 06:10:51;;;;;;;10.02;1.50;;;14.60;99.90;;;;;;5094336;28;20052;-72
2022/06/13 06:13:17;;;;;;;5.22;1.45;;;14.60;99.90;;;;;;5094438;28;20523;-72
2022/06/13 06:15:45;;;;;;;5.40;1.33;;;14.60;99.90;;;;;;5096785;28;20131;-71
2022/06/13 06:18:11;;;;;;;4.78;1.17;;;14.60;99.90;;;;;;5086321;28;20058;-71
2022/06/13 06:20:37;;;;;;;5.35;1.52;;;14.60;99.90;;;;;;5081230;28;20040;-71
2022/06/13 06:23:03;;;;;;;3.55;1.42;;;14.50;99.90;;;;;;5092834;28;20089;-71
2022/06/13 06:25:30;;;;;;;4.57;1.20;;;14.60;99.90;;;;;;5093833;28;20178;-71
2022/06/13 06:27:56;;;;;;;6.15;1.50;;;14.60;99.90;;;;;;5094199;28;20568;-71
2022/06/13 06:30:22;;;;;;;5.50;1.40;;;14.60;99.90;;;;;;5093949;28;20143;-72
2022/06/13 06:32:47;;;;;;;3.28;1.00;;;14.80;99.90;;;;;;5094112;28;20097;-73
2022/06/13 06:35:14;;;;;;;3.85;1.00;;;14.60;99.90;;;;;;5073479;28;20048;-71
2022/06/13 06:37:45;;;;;;;2.47;0.85;;;14.60;99.90;;;;;;5072557;28;20048;-72
2022/06/13 06:40:14;;;;;;;6.10;0.70;;;14.70;99.90;;;;;;5073477;28;20559;-74
2022/06/13 06:42:40;;;;;;;4.82;0.90;;;14.70;99.90;;;;;;5073111;28;20413;-73
2022/06/13 06:45:06;;;;;;;3.65;0.90;;;14.80;99.90;;;;;;5073449;28;20060;-73
2022/06/13 06:47:31;;;;;;;;;;;14.80;99.90;;;;;;5074026;28;20094;-71
2022/06/13 06:49:58;;;;;;;2.80;0.88;;;14.90;99.90;;;;;;5073214;28;19924;-73
2022/06/13 06:52:23;;;;;;;2.90;0.73;;;15.00;99.90;;;;;;5072924;28;20040;-71
2022/06/13 07:00:19;;;;;;;4.22;0.80;;;14.90;99.90;;;;;;5073048;28;20118;-72
2022/06/13 07:02:45;;;;;;;3.78;0.75;;;14.90;99.90;;;;;;5073223;28;20471;-71
2022/06/13 07:05:12;;;;;;;3.17;0.80;;;14.90;99.90;;;;;;5071554;28;20131;-74
2022/06/13 07:07:38;;;;;;;4.72;0.80;;;14.80;99.90;;;;;;5068449;28;20052;-71
2022/06/13 07:10:05;;;;;;;3.65;1.02;;;14.90;99.90;;;;;;5084820;28;20056;-73
2022/06/13 07:12:31;;;;;;;7.70;0.90;;;15.00;99.90;;;;;;5055493;28;20135;-72
2022/06/13 07:14:57;;;;;;;2.78;0.90;;;15.00;99.90;;;;;;5055333;28;20143;-73
2022/06/13 07:17:23;;;;;;;2.17;0.73;;;15.10;99.90;;;;;;5055508;28;20060;-74
2022/06/13 07:19:48;;;;;;;5.38;1.42;;;15.20;99.90;;;;;;5071761;28;20079;-72
2022/06/13 07:22:18;;;;;;;4.13;0.88;;;15.10;99.90;;;;;;5056019;28;20516;-71
2022/06/13 07:24:45;;;;;;;6.70;1.05;;;15.00;99.90;;;;;;5073255;28;20102;-72
2022/06/13 07:27:11;;;;;;;5.15;0.77;;;14.80;99.90;;;;;;5071981;28;20084;-72
2022/06/13 07:29:37;;;;;;;2.55;0.90;;;14.60;99.90;;;;;;5055072;28;20527;-72
2022/06/13 07:32:16;;;;;;;1.55;0.70;;;14.50;99.90;;;;;;5071064;28;20049;-71
2022/06/13 07:34:43;;;;;;;3.70;0.73;;;14.30;99.90;;;;;;5089262;28;20083;-72
2022/06/13 07:37:11;;;;;;;3.30;0.68;;;14.20;99.90;;;;;;5093242;28;20059;-71
2022/06/13 07:39:37;;;;;;;3.45;0.50;;;14.10;99.90;;;;;;5093209;28;20052;-73
2022/06/13 07:42:04;;;;;;;5.15;0.70;;;14.00;99.90;;;;;;5093458;28;20507;-71
2022/06/13 07:44:34;;;;;;;3.45;1.00;;;14.00;99.90;;;;;;5092558;28;20055;-72
2022/06/13 07:47:00;;;;;;;3.63;0.70;;;14.00;99.90;;;;;;5093002;28;20052;-71
2022/06/13 07:49:26;;;;;;;2.00;0.50;;;13.90;99.90;;;;;;5092870;28;20170;-73
2022/06/13 07:51:52;;;;;;;4.00;0.60;;;14.00;99.90;;;;;;5093104;28;20139;-72
2022/06/13 07:54:18;;;;;;;2.75;0.60;;;14.10;99.90;;;;;;5092744;28;20389;-71
2022/06/13 07:56:44;;;;;;;2.55;0.47;;;14.20;99.90;;;;;;5096643;28;20063;-72
2022/06/13 07:59:17;;;;;;;0.80;0.40;;;14.30;99.90;;;;;;5097019;28;20139;-72
2022/06/13 08:01:44;;;;;;;3.30;0.80;;;14.30;99.90;;;;;;5096747;28;20052;-71
2022/06/13 08:04:10;;;;;;;3.95;0.70;;;14.20;99.90;;;;;;5078926;28;20530;-73
2022/06/13 08:06:41;;;;;;;4.07;0.85;;;14.20;99.90;;;;;;5086640;28;20052;-71
2022/06/13 08:09:09;;;;;;;4.15;0.80;;;14.20;99.90;;;;;;5088049;28;20059;-71
2022/06/13 08:11:39;;;;;;;2.38;0.70;;;14.00;99.90;;;;;;5117072;28;20052;-72
2022/06/13 08:14:06;;;;;;;2.35;0.68;;;13.80;99.90;;;;;;5113103;28;20083;-74
2022/06/13 08:16:36;;;;;;;3.55;1.25;;;13.60;99.90;;;;;;5096543;28;20127;-73
2022/06/13 08:19:03;;;;;;;1.90;0.85;;;13.40;99.90;;;;;;5096664;28;20480;-72
2022/06/13 08:21:37;;;;;;;2.08;0.70;;;13.20;99.90;;;;;;5096692;28;20048;-71
2022/06/13 08:24:05;;;;;;;3.03;0.60;;;13.10;99.90;;;;;;5096563;28;20060;-72
2022/06/13 08:26:33;;;;;;;1.88;0.80;;;12.90;99.90;;;;;;5065138;28;20052;-73
2022/06/13 08:28:59;;;;;;;3.70;1.02;;;12.90;99.90;;;;;;5058481;28;20060;-71
2022/06/13 08:31:25;;;;;;;2.08;0.77;;;12.80;99.90;;;;;;5075897;28;20055;-71
2022/06/13 08:33:51;;;;;;;3.15;0.95;;;12.90;99.90;;;;;;5048718;28;20092;-74
2022/06/13 08:36:25;;;;;;;4.90;1.20;;;12.90;99.90;;;;;;5065106;28;20056;-72
2022/06/13 08:38:54;;;;;;;4.38;1.48;;;13.00;99.90;;;;;;5074067;28;20082;-72
2022/06/13 08:41:36;;;;;;;2.22;1.08;;;13.10;99.90;;;;;;5095830;28;20118;-72
2022/06/13 08:44:36;;;;;;;3.65;1.30;;;13.20;99.90;;;;;;5077720;28;20048;-71
2022/06/13 08:47:48;;;;;;;2.40;0.80;;;13.20;99.90;;;;;;5083767;28;20445;-71
2022/06/13 08:50:30;;;;;;;4.18;1.48;;;13.30;99.90;;;;;;5047450;28;20049;-71
2022/06/13 08:53:03;;;;;;;4.00;1.00;;;13.40;99.90;;;;;;5055168;28;20045;-71
2022/06/13 08:56:02;;;;;;;4.93;1.17;;;13.50;99.90;;;;;;5055572;28;20099;-72
2022/06/13 08:59:25;;;;;;;6.07;1.27;;;13.50;99.90;;;;;;5021934;28;20063;-72
2022/06/13 09:02:17;;;;;;;2.90;1.40;;;13.60;99.90;;;;;;5000444;28;20045;-71
2022/06/13 09:04:50;;;;;;;2.95;0.95;;;13.60;99.90;;;;;;4998307;28;20065;-74
2022/06/13 09:07:49;;;;;;;4.25;1.17;;;13.50;99.90;;;;;;5029453;28;20064;-74
2022/06/13 09:10:47;;;;;;;8.93;2.65;;;13.60;99.90;;;;;;5032924;28;20135;-74
2022/06/13 09:13:36;;;;;;;5.38;1.13;;;13.60;99.90;;;;;;5032872;28;20049;-73
2022/06/13 09:16:09;;;;;;;7.25;2.28;;;13.70;99.90;;;;;;5012470;28;20120;-71
2022/06/13 09:18:38;;;;;;;4.05;0.93;;;13.80;99.90;;;;;;5001603;28;20065;-71
2022/06/13 09:21:27;;;;;;;3.60;0.88;;;13.90;99.90;;;;;;5032658;28;20060;-74
2022/06/13 09:24:12;;;;;;;7.55;0.90;;;14.10;99.90;;;;;;5032619;28;20124;-72
2022/06/13 09:26:53;;;;;;;5.63;1.00;;;14.30;99.90;;;;;;5032637;28;20054;-71
2022/06/13 09:29:31;;;;;;;1.15;0.50;;;14.50;99.90;;;;;;5027229;28;20054;-73
2022/06/13 09:32:15;;;;;;;3.35;0.82;;;14.50;99.90;;;;;;5031993;28;20054;-71
2022/06/13 09:34:48;;;;;;;7.60;1.00;;;14.50;99.90;;;;;;5049210;28;20544;-71
2022/06/13 09:37:48;;;;;;;3.28;0.68;;;14.60;99.90;;;;;;5054639;28;20065;-72
2022/06/13 09:40:40;;;;;;;4.15;0.70;;;14.70;99.90;;;;;;5049383;28;20056;-71
2022/06/13 09:43:40;;;;;;;3.10;0.90;;;14.70;99.90;;;;;;5060771;28;20511;-72
2022/06/13 09:46:35;;;;;;;3.45;0.60;;;14.70;99.90;;;;;;5080610;28;20079;-71
2022/06/13 09:49:22;;;;;;;3.75;0.90;;;14.70;99.90;;;;;;5094155;28;20130;-73
2022/06/13 09:52:30;;;;;;;3.70;0.73;;;14.60;99.90;;;;;;5071898;28;20056;-71
2022/06/13 09:55:15;;;;;;;1.75;0.68;;;14.60;99.90;;;;;;5074419;28;20072;-72
2022/06/13 09:57:58;;;;;;;4.72;0.60;;;14.60;99.90;;;;;;5073109;28;20055;-73
2022/06/13 10:00:42;;;;;;;2.53;0.60;;;14.70;99.90;;;;;;5073758;28;20417;-72
2022/06/13 10:03:25;;;;;;;6.38;0.80;;;14.80;99.90;;;;;;5052409;28;20044;-72
2022/06/13 10:06:30;;;;;;;2.90;0.50;;;15.00;99.90;;;;;;5092876;28;20500;-71
2022/06/13 10:09:17;;;;;;;2.50;0.47;;;15.10;99.90;;;;;;4998916;28;20057;-72
2022/06/13 10:11:56;;;;;;;3.85;0.68;;;15.20;99.90;;;;;;5011556;28;20054;-71
2022/06/13 10:14:43;;;;;;;4.50;2.13;;;15.20;99.90;;;;;;4992349;28;20546;-73
2022/06/13 10:17:34;;;;;;;3.00;0.60;;;15.30;99.90;;;;;;4989105;28;20086;-71
2022/06/13 10:20:07;;;;;;;2.83;0.68;;;15.40;99.90;;;;;;4988572;28;20092;-74
2022/06/13 10:23:07;;;;;;;3.08;0.70;;;15.50;99.90;;;;;;5011792;28;20132;-71
2022/06/13 10:26:10;;;;;;;2.75;0.43;;;15.60;99.90;;;;;;5011792;28;20092;-76
2022/06/13 10:28:57;;;;;;;1.58;0.50;;;15.50;99.90;;;;;;5008441;28;20541;-72
2022/06/13 10:31:35;;;;;;;1.83;1.20;;;15.50;99.90;;;;;;4985822;28;20046;-71
2022/06/13 10:34:31;;;;;;;7.50;0.73;;;15.60;99.90;;;;;;4975425;28;20050;-71
2022/06/13 10:37:27;;;;;;;2.35;0.65;;;15.70;99.90;;;;;;4991281;28;20637;-72
2022/06/13 10:40:00;;;;;;;3.13;0.60;;;15.70;99.90;;;;;;4975849;28;20078;-72
2022/06/13 10:42:30;;;;;;;4.80;1.00;;;15.70;99.90;;;;;;4991501;28;20149;-72
2022/06/13 10:44:58;;;;;;;3.22;0.60;;;15.70;99.90;;;;;;4994540;28;20180;-72
2022/06/13 10:47:52;;;;;;;2.72;0.90;;;15.70;99.90;;;;;;5051803;28;20110;-71
2022/06/13 10:50:48;;;;;;;4.68;0.80;;;15.70;99.90;;;;;;5055194;28;20431;-71
2022/06/13 10:53:53;;;;;;;2.80;0.75;;;15.70;99.90;;;;;;5071432;28;20056;-73
2022/06/13 10:56:36;;;;;;;5.22;1.15;;;15.80;99.90;;;;;;5052003;28;20450;-71
2022/06/13 10:59:04;;;;;;;3.28;0.65;;;15.90;99.90;;;;;;5073242;28;20067;-72
2022/06/13 11:01:32;;;;;;;4.85;1.00;;;15.80;99.90;;;;;;5072934;28;20056;-71
2022/06/13 11:04:20;;;;;;;4.80;0.85;;;15.70;99.90;;;;;;5060364;28;20194;-71
2022/06/13 11:06:53;;;;;;;5.70;1.13;;;15.70;99.90;;;;;;5072725;28;20109;-73
2022/06/13 11:09:23;;;;;;;5.18;1.20;;;15.50;99.90;;;;;;5073095;28;20063;-70
2022/06/13 11:11:55;;;;;;;7.55;1.10;;;15.50;99.90;;;;;;5038933;28;20409;-70
2022/06/13 11:22:37;;;;;;;5.55;1.27;;;15.50;99.90;;;;;;5054624;28;20071;-71
2022/06/13 11:23:09;;;;;;;4.88;0.90;;;15.90;99.90;;;;;;5072864;28;20501;-71
2022/06/13 11:25:38;;;;;;;4.30;1.10;;;15.90;99.90;;;;;;5064354;28;20158;-72
2022/06/13 11:28:12;;;;;;;6.20;0.85;;;16.00;99.90;;;;;;5065266;28;20065;-72
2022/06/13 11:30:43;;;;;;;8.63;1.33;;;15.90;99.90;;;;;;5071984;28;20118;-71
2022/06/13 11:33:11;;;;;;;5.25;1.00;;;15.90;99.90;;;;;;5073890;28;20056;-71
2022/06/13 11:35:43;;;;;;;5.82;0.98;;;15.90;99.90;;;;;;5072436;28;20048;-73
2022/06/13 11:38:25;;;;;;;5.00;0.73;;;15.90;99.90;;;;;;5072509;28;20059;-71
2022/06/13 11:41:24;;;;;;;6.25;0.82;;;15.80;99.90;;;;;;5072504;28;20562;-71
2022/06/13 11:44:02;;;;;;;4.65;1.08;;;15.90;99.90;;;;;;5030583;28;20100;-72
2022/06/13 11:46:35;;;;;;;6.55;1.20;;;16.00;99.90;;;;;;5028793;28;20054;-71
2022/06/13 11:49:14;;;;;;;5.05;0.98;;;16.10;99.90;;;;;;5030470;28;20053;-71
2022/06/13 11:55:22;;;;;;;6.57;2.42;;;16.00;99.90;;;;;;4971569;28;20579;-71
2022/06/13 11:58:02;;;;;;;6.70;1.52;;;16.00;99.90;;;;;;4969296;28;20524;-72
2022/06/13 12:00:48;;;;;;;7.75;1.58;;;16.10;99.90;;;;;;4955383;28;20054;-72
2022/06/13 12:03:24;;;;;;;8.15;1.70;;;16.10;99.90;;;;;;4971439;28;20134;-72
2022/06/13 12:06:10;;;;;;;4.40;1.20;;;16.10;99.90;;;;;;4971662;28;20058;-71
2022/06/13 12:08:39;;;;;;;5.85;1.38;;;16.10;99.90;;;;;;4969738;28;20046;-71
2022/06/13 12:11:22;;;;;;;3.47;1.08;;;16.10;99.90;;;;;;4955612;28;20059;-71
2022/06/13 12:13:56;;;;;;;4.15;1.02;;;16.10;99.90;;;;;;4955192;28;20063;-71
2022/06/13 12:16:46;;;;;;;4.95;0.75;;;16.00;99.90;;;;;;4971540;28;20075;-71
2022/06/13 12:19:31;;;;;;;3.80;0.77;;;16.10;99.90;;;;;;4953656;28;20055;-71
2022/06/13 12:22:20;;;;;;;3.92;0.93;;;16.10;99.90;;;;;;5009679;28;20056;-71
2022/06/13 12:24:50;;;;;;;3.88;0.85;;;16.00;99.90;;;;;;5010321;28;20519;-71
2022/06/13 12:27:35;;;;;;;3.85;1.20;;;16.00;99.90;;;;;;5010339;28;20049;-70
2022/06/13 12:30:40;;;;;;;4.45;1.00;;;16.00;99.90;;;;;;5027919;28;20053;-72
2022/06/13 12:33:10;;;;;;;5.28;0.70;;;16.00;99.90;;;;;;5072296;28;20524;-71
2022/06/13 12:35:46;;;;;;;2.95;0.70;;;16.10;99.90;;;;;;5111161;28;20057;-71
2022/06/13 12:38:17;;;;;;;1.52;0.47;;;16.10;99.90;;;;;;5112411;28;20428;-73
2022/06/13 12:40:47;;;;;;;1.85;0.50;;;16.40;99.90;;;;;;5111168;28;20492;-71
2022/06/13 12:43:41;;;;;;;5.88;0.93;;;16.30;99.90;;;;;;5108482;28;20630;-71
2022/06/13 12:46:46;;;;;;;6.32;0.93;;;16.30;99.90;;;;;;5095642;28;20089;-71
2022/06/13 12:49:31;;;;;;;3.13;0.90;;;16.40;99.90;;;;;;5086209;28;20078;-71
2022/06/13 12:52:07;;;;;;;5.53;0.80;;;16.40;99.90;;;;;;5115603;28;20461;-71
2022/06/13 12:55:12;;;;;;;4.03;0.77;;;16.40;99.90;;;;;;5075381;28;20045;-70
2022/06/13 12:57:51;;;;;;;3.72;0.77;;;16.50;99.90;;;;;;5092202;28;20059;-71
2022/06/13 13:00:36;;;;;;;5.55;0.57;;;16.60;99.90;;;;;;5095352;28;20404;-71
2022/06/13 13:03:03;;;;;;;3.40;1.38;;;16.70;99.90;;;;;;5095393;28;20129;-72
2022/06/13 13:05:52;;;;;;;4.95;0.60;;;16.70;99.90;;;;;;5077270;28;20500;-71
2022/06/13 13:08:35;;;;;;;4.18;0.90;;;16.60;99.90;;;;;;5093876;28;20504;-71
2022/06/13 13:11:09;;;;;;;4.15;0.70;;;16.60;99.90;;;;;;5095388;28;20130;-71
2022/06/13 13:13:43;;;;;;;1.20;0.50;;;16.50;99.90;;;;;;5095450;28;20051;-72
2022/06/13 13:16:11;;;;;;;3.67;0.80;;;16.60;99.90;;;;;;5077465;28;20052;-71
2022/06/13 13:18:57;;;;;;;3.15;0.70;;;16.60;99.90;;;;;;5079793;28;20063;-71
2022/06/13 13:21:30;;;;;;;5.90;0.88;;;16.60;99.90;;;;;;5095095;28;20048;-71
2022/06/13 13:24:03;;;;;;;6.72;0.80;;;16.60;99.90;;;;;;5094897;28;20407;-71
2022/06/13 13:26:53;;;;;;;5.55;1.27;;;16.60;99.90;;;;;;5095243;28;20056;-71
2022/06/13 13:29:45;;;;;;;2.88;0.60;;;16.60;99.90;;;;;;5077906;28;20404;-73
2022/06/13 13:32:21;;;;;;;4.25;0.68;;;16.50;99.90;;;;;;5094851;28;20055;-71
2022/06/13 13:35:14;;;;;;;1.60;0.70;;;16.50;99.90;;;;;;5073405;28;20052;-71
2022/06/13 13:38:05;;;;;;;3.40;0.50;;;16.60;99.90;;;;;;5032435;28;20053;-72
2022/06/13 13:40:49;;;;;;;2.50;0.70;;;16.70;99.90;;;;;;5032084;28;20128;-72
2022/06/13 13:43:25;;;;;;;1.58;0.43;;;16.80;99.90;;;;;;5029255;28;20061;-73
2022/06/13 13:46:18;;;;;;;3.13;0.80;;;16.80;99.90;;;;;;5028918;28;20049;-71
2022/06/13 13:49:04;;;;;;;2.30;0.57;;;16.80;99.90;;;;;;4994147;28;20623;-73
2022/06/13 13:51:50;;;;;;;4.60;0.50;;;16.70;99.90;;;;;;4998081;28;20622;-72
2022/06/13 13:54:29;;;;;;;2.97;0.70;;;16.60;99.90;;;;;;4993483;28;20065;-71